Horni Kamenec, Czech Republic

3:59 PM CEST on May 27, 2017 (GMT +0200)
Klause | | Change Station

Elev 2365 ft 49.07 °N, 13.10 °E | Updated 9 minutes ago

Clear
Clear
78.4 °F
Feels Like 79 °F
N
3.7
Wind Variable Wind from SW
Gusts 6.2 mph

Today
High -- | Low -- °F
--% Chance of Precip.
Yesterday
High -- | Low -- °F
Precip. -- in
Pressure 30.18 in
Visibility -9999.0 miles
Clouds
Heat Index 79 °F
Dew Point 56 °F
Humidity 45%
Rainfall 0.00 in
Snow Depth Not available.
5:10 AM 8:57 PM
Waxing Crescent, 5% visible
METAR LKLN 271300Z AUTO 05005KT 330V140 CAVOK 25/10 Q1022
Pressure 30.18 in
Visibility -9999.0 miles
Clouds
Heat Index 79 °F
Dew Point 56 °F
Humidity 45%
Rainfall 0.00 in
Snow Depth Not available.
5:10 AM 8:57 PM
Waxing Crescent, 5% visible
METAR LKLN 271300Z AUTO 05005KT 330V140 CAVOK 25/10 Q1022

Get Severe Weather Alerts

Thanks for signing up!

Be on the lookout for a verification email in your inbox.

You'll start receiving the daily forecast at 6 AM.

×

10-Day Weather Forecast

×

Almanac

Astronomy

May. 27, 2017 Rise Set
Actual Time
Civil Twilight
Nautical Twilight
Astronomical Twilight
Moon
Length of Visible Light
Length of Day
Tomorrow will be .
, % of the Moon is Illuminated

Today's Extremes

Country Highs Country Lows

Community

WunderPhotos

Category 6

Welcome to Category 6. This is the collective home for Weather Underground's featured writeups by Dr. Jeff Masters (right), Bob Henson (left), Chris Burt, and other regular contributors.

Nearby

Air Quality

  Air Quality AQ Index Pollutant
Not available.

Snow Depth

Station Depth Elevation

Earthquake Activity

City Distance Mag. Time & Date
Minimum magnitude displayed is 2.5.

Coastal Water Temperatures

Place Temperature

Stations

Nearby Weather Stations

Station Location Temp. Windchill Dew Point Humidity Wind Precip. Elev Updated Type